sensor_id;sensor_type;location;lat;lon;timestamp;pressure;altitude;pressure_sealevel;temperature;humidity
58739;BME280;44512;53.046;18.604;2023-03-12T00:04:33;100539.18;;;1.86;62.86
58739;BME280;44512;53.046;18.604;2023-03-12T00:15:01;100516.84;;;1.87;62.73
58739;BME280;44512;53.046;18.604;2023-03-12T00:25:30;100519.79;;;1.84;62.66
58739;BME280;44512;53.046;18.604;2023-03-12T00:35:59;100509.73;;;1.78;62.76
58739;BME280;44512;53.046;18.604;2023-03-12T00:46:27;100503.99;;;1.73;62.83
58739;BME280;44512;53.046;18.604;2023-03-12T00:56:55;100523.11;;;1.68;63.11
58739;BME280;44512;53.046;18.604;2023-03-12T01:07:23;100540.11;;;1.67;63.44
58739;BME280;44512;53.046;18.604;2023-03-12T01:17:52;100519.60;;;1.68;63.75
58739;BME280;44512;53.046;18.604;2023-03-12T01:28:21;100515.78;;;1.70;63.92
58739;BME280;44512;53.046;18.604;2023-03-12T01:38:53;100495.70;;;1.76;63.87
58739;BME280;44512;53.046;18.604;2023-03-12T01:49:23;100506.61;;;1.82;63.75
58739;BME280;44512;53.046;18.604;2023-03-12T01:59:53;100504.33;;;1.88;63.68
58739;BME280;44512;53.046;18.604;2023-03-12T02:10:14;100506.84;;;1.89;63.71
58739;BME280;44512;53.046;18.604;2023-03-12T02:20:49;100541.25;;;1.92;63.74
58739;BME280;44512;53.046;18.604;2023-03-12T02:31:14;100539.26;;;1.94;63.82
58739;BME280;44512;53.046;18.604;2023-03-12T02:41:42;100527.47;;;1.97;63.88
58739;BME280;44512;53.046;18.604;2023-03-12T02:52:07;100545.28;;;1.96;63.99
58739;BME280;44512;53.046;18.604;2023-03-12T03:02:35;100539.26;;;1.94;64.18
58739;BME280;44512;53.046;18.604;2023-03-12T03:13:04;100561.62;;;1.93;64.24
58739;BME280;44512;53.046;18.604;2023-03-12T03:23:33;100555.28;;;1.94;64.21
58739;BME280;44512;53.046;18.604;2023-03-12T03:34:01;100593.65;;;1.93;63.97
58739;BME280;44512;53.046;18.604;2023-03-12T03:44:29;100590.27;;;1.91;63.51
58739;BME280;44512;53.046;18.604;2023-03-12T03:54:57;100592.93;;;1.91;62.65
58739;BME280;44512;53.046;18.604;2023-03-12T04:05:26;100607.44;;;1.89;62.54
58739;BME280;44512;53.046;18.604;2023-03-12T04:15:54;100637.63;;;1.89;62.65
58739;BME280;44512;53.046;18.604;2023-03-12T04:26:22;100636.11;;;1.87;62.78
58739;BME280;44512;53.046;18.604;2023-03-12T04:36:51;100653.80;;;1.88;62.70
58739;BME280;44512;53.046;18.604;2023-03-12T04:47:19;100664.91;;;1.83;62.58
58739;BME280;44512;53.046;18.604;2023-03-12T04:57:48;100687.52;;;1.79;62.27
58739;BME280;44512;53.046;18.604;2023-03-12T05:08:16;100695.13;;;1.74;62.22
58739;BME280;44512;53.046;18.604;2023-03-12T05:18:44;100706.10;;;1.71;62.28
58739;BME280;44512;53.046;18.604;2023-03-12T05:29:13;100719.04;;;1.66;62.40
58739;BME280;44512;53.046;18.604;2023-03-12T05:39:41;100722.66;;;1.65;62.35
58739;BME280;44512;53.046;18.604;2023-03-12T05:50:10;100725.76;;;1.60;62.16
58739;BME280;44512;53.046;18.604;2023-03-12T06:00:40;100738.25;;;1.60;62.31
58739;BME280;44512;53.046;18.604;2023-03-12T06:11:07;100758.63;;;1.61;62.69
58739;BME280;44512;53.046;18.604;2023-03-12T06:21:35;100776.32;;;1.62;62.24
58739;BME280;44512;53.046;18.604;2023-03-12T06:32:04;100776.02;;;1.65;61.52
58739;BME280;44512;53.046;18.604;2023-03-12T06:42:32;100810.44;;;1.68;60.64
58739;BME280;44512;53.046;18.604;2023-03-12T06:53:00;100822.11;;;1.76;59.85
58739;BME280;44512;53.046;18.604;2023-03-12T07:03:29;100831.48;;;1.80;59.23
58739;BME280;44512;53.046;18.604;2023-03-12T07:13:57;100836.14;;;1.88;58.72
58739;BME280;44512;53.046;18.604;2023-03-12T07:24:25;100872.53;;;1.99;58.06
58739;BME280;44512;53.046;18.604;2023-03-12T07:34:54;100866.45;;;2.06;57.11
58739;BME280;44512;53.046;18.604;2023-03-12T07:45:22;100875.60;;;2.14;56.22
58739;BME280;44512;53.046;18.604;2023-03-12T07:55:51;100881.10;;;2.12;54.99
58739;BME280;44512;53.046;18.604;2023-03-12T08:06:19;100869.27;;;2.24;54.78
58739;BME280;44512;53.046;18.604;2023-03-12T08:16:47;100895.24;;;2.32;53.84
58739;BME280;44512;53.046;18.604;2023-03-12T08:27:16;100914.52;;;2.35;52.84
58739;BME280;44512;53.046;18.604;2023-03-12T08:37:44;100934.31;;;2.43;52.39
58739;BME280;44512;53.046;18.604;2023-03-12T08:48:13;100934.19;;;2.54;52.08
58739;BME280;44512;53.046;18.604;2023-03-12T08:58:41;100946.55;;;2.65;51.81
58739;BME280;44512;53.046;18.604;2023-03-12T09:09:10;100947.64;;;2.72;50.75
58739;BME280;44512;53.046;18.604;2023-03-12T09:19:38;100959.43;;;2.79;49.75
58739;BME280;44512;53.046;18.604;2023-03-12T09:35:15;100972.66;;;2.90;49.31
58739;BME280;44512;53.046;18.604;2023-03-12T09:45:46;101012.59;;;3.01;48.75
58739;BME280;44512;53.046;18.604;2023-03-12T09:56:15;101019.04;;;3.08;48.34
58739;BME280;44512;53.046;18.604;2023-03-12T10:27:37;101044.16;;;3.35;46.64
58739;BME280;44512;53.046;18.604;2023-03-12T10:38:12;101030.78;;;3.35;46.75
58739;BME280;44512;53.046;18.604;2023-03-12T10:48:34;101039.94;;;3.42;46.59
58739;BME280;44512;53.046;18.604;2023-03-12T10:59:07;101039.49;;;3.47;45.30
58739;BME280;44512;53.046;18.604;2023-03-12T11:09:31;101061.98;;;3.54;45.40
58739;BME280;44512;53.046;18.604;2023-03-12T11:30:35;101060.37;;;3.71;44.65
58739;BME280;44512;53.046;18.604;2023-03-12T12:54:22;101072.79;;;4.44;41.23
58739;BME280;44512;53.046;18.604;2023-03-12T13:04:43;101069.04;;;4.55;40.94
58739;BME280;44512;53.046;18.604;2023-03-12T13:46:38;101099.34;;;5.09;39.90
58739;BME280;44512;53.046;18.604;2023-03-12T13:57:11;101089.99;;;5.13;40.11
58739;BME280;44512;53.046;18.604;2023-03-12T14:28:31;101099.45;;;5.26;40.14
58739;BME280;44512;53.046;18.604;2023-03-12T14:49:27;101101.13;;;5.27;41.48
58739;BME280;44512;53.046;18.604;2023-03-12T14:59:57;101083.05;;;5.29;41.82
58739;BME280;44512;53.046;18.604;2023-03-12T15:10:26;101097.98;;;5.31;41.94
58739;BME280;44512;53.046;18.604;2023-03-12T15:20:52;101095.16;;;5.33;42.03
58739;BME280;44512;53.046;18.604;2023-03-12T15:31:20;101099.37;;;5.35;41.88
58739;BME280;44512;53.046;18.604;2023-03-12T15:41:49;101103.59;;;5.38;42.30
58739;BME280;44512;53.046;18.604;2023-03-12T15:52:26;101113.46;;;5.37;42.66
58739;BME280;44512;53.046;18.604;2023-03-12T16:02:51;101095.54;;;5.38;43.09
58739;BME280;44512;53.046;18.604;2023-03-12T16:13:15;101094.67;;;5.37;43.45
58739;BME280;44512;53.046;18.604;2023-03-12T16:23:42;101078.73;;;5.36;43.84
58739;BME280;44512;53.046;18.604;2023-03-12T16:34:11;101074.66;;;5.32;44.22
58739;BME280;44512;53.046;18.604;2023-03-12T16:44:39;101070.30;;;5.31;44.57
58739;BME280;44512;53.046;18.604;2023-03-12T16:55:08;101069.46;;;5.30;44.93
58739;BME280;44512;53.046;18.604;2023-03-12T17:05:35;101077.34;;;5.32;45.25
58739;BME280;44512;53.046;18.604;2023-03-12T17:16:04;101089.80;;;5.33;45.69
58739;BME280;44512;53.046;18.604;2023-03-12T17:26:33;101106.20;;;5.30;45.94
58739;BME280;44512;53.046;18.604;2023-03-12T17:37:01;101108.52;;;5.25;46.12
58739;BME280;44512;53.046;18.604;2023-03-12T17:47:29;101108.61;;;5.15;46.41
58739;BME280;44512;53.046;18.604;2023-03-12T17:57:58;101112.54;;;5.03;46.79
58739;BME280;44512;53.046;18.604;2023-03-12T18:08:26;101097.83;;;4.89;47.51
58739;BME280;44512;53.046;18.604;2023-03-12T18:18:54;101078.29;;;4.79;48.25
58739;BME280;44512;53.046;18.604;2023-03-12T18:29:23;101101.05;;;4.75;48.68
58739;BME280;44512;53.046;18.604;2023-03-12T18:39:51;101124.79;;;4.69;49.14
58739;BME280;44512;53.046;18.604;2023-03-12T18:50:20;101130.48;;;4.66;49.48
58739;BME280;44512;53.046;18.604;2023-03-12T19:00:53;101114.39;;;4.66;49.74
58739;BME280;44512;53.046;18.604;2023-03-12T19:11:16;101125.95;;;4.67;49.87
58739;BME280;44512;53.046;18.604;2023-03-12T19:21:45;101117.76;;;4.68;50.00
58739;BME280;44512;53.046;18.604;2023-03-12T19:32:13;101119.52;;;4.78;50.08
58739;BME280;44512;53.046;18.604;2023-03-12T19:42:42;101122.42;;;4.84;50.03
58739;BME280;44512;53.046;18.604;2023-03-12T19:53:11;101103.48;;;4.86;50.11
58739;BME280;44512;53.046;18.604;2023-03-12T20:03:38;101092.84;;;4.94;50.09
58739;BME280;44512;53.046;18.604;2023-03-12T20:14:07;101079.51;;;5.02;50.10
58739;BME280;44512;53.046;18.604;2023-03-12T20:24:35;101073.52;;;5.08;50.16
58739;BME280;44512;53.046;18.604;2023-03-12T20:35:04;101081.55;;;5.08;50.21
58739;BME280;44512;53.046;18.604;2023-03-12T20:45:32;101076.83;;;5.02;50.30
58739;BME280;44512;53.046;18.604;2023-03-12T20:56:01;101080.87;;;5.06;50.39
58739;BME280;44512;53.046;18.604;2023-03-12T21:06:29;101083.40;;;5.08;50.58
58739;BME280;44512;53.046;18.604;2023-03-12T21:16:57;101068.98;;;5.09;50.73
58739;BME280;44512;53.046;18.604;2023-03-12T21:27:26;101040.98;;;5.11;50.93
58739;BME280;44512;53.046;18.604;2023-03-12T21:37:54;101041.68;;;5.13;51.21
58739;BME280;44512;53.046;18.604;2023-03-12T21:48:23;101030.26;;;5.11;51.49
58739;BME280;44512;53.046;18.604;2023-03-12T21:58:51;101001.70;;;5.02;51.66
58739;BME280;44512;53.046;18.604;2023-03-12T22:09:19;101019.38;;;5.13;51.30
58739;BME280;44512;53.046;18.604;2023-03-12T22:19:48;100985.70;;;5.18;51.02
58739;BME280;44512;53.046;18.604;2023-03-12T22:30:17;100952.19;;;5.22;51.18
58739;BME280;44512;53.046;18.604;2023-03-12T22:40:45;100949.16;;;5.26;51.62
58739;BME280;44512;53.046;18.604;2023-03-12T22:51:13;100946.48;;;5.26;52.06
58739;BME280;44512;53.046;18.604;2023-03-12T23:01:42;100946.82;;;5.22;52.34
58739;BME280;44512;53.046;18.604;2023-03-12T23:12:13;100946.12;;;5.20;52.60
58739;BME280;44512;53.046;18.604;2023-03-12T23:22:38;100930.36;;;5.17;52.83
58739;BME280;44512;53.046;18.604;2023-03-12T23:33:07;100935.39;;;5.20;52.96
58739;BME280;44512;53.046;18.604;2023-03-12T23:43:35;100912.89;;;5.13;53.24
58739;BME280;44512;53.046;18.604;2023-03-12T23:54:04;100896.25;;;5.10;53.22
